Time;durP1;ratioP1;P1;durP2;ratioP2;P2;SDS_P1;SDS_P2;PMS_P1;PMS_P2;Temp;Humidity;BMP_temperature;BMP_pressure;BME280_temperature;BME280_humidity;BME280_pressure;Samples;Min_cycle;Max_cycle;Signal;HPM_P1;HPM_P2
2021/06/06 00:00:32;;;;;;;19.23;5.28;;;;;;;13.06;100.00;100716.80;1621750;87;21983;-80
2021/06/06 00:03:00;;;;;;;21.12;5.92;;;;;;;13.03;100.00;100720.57;1592170;89;21039;-81
2021/06/06 00:05:43;;;;;;;20.37;6.65;;;;;;;13.00;100.00;100716.55;1592792;90;21158;-81
2021/06/06 00:08:09;;;;;;;22.00;5.47;;;;;;;12.98;100.00;100720.60;1547767;92;21056;-81
2021/06/06 00:10:35;;;;;;;15.68;5.92;;;;;;;12.88;100.00;100723.59;1516632;94;20948;-81
2021/06/06 00:13:01;;;;;;;23.07;7.35;;;;;;;12.86;100.00;100724.39;1504465;95;21134;-81
2021/06/06 00:15:27;;;;;;;22.75;6.90;;;;;;;12.83;100.00;100728.19;1516379;94;21720;-81
2021/06/06 00:17:53;;;;;;;20.85;5.92;;;;;;;12.81;100.00;100722.23;1504658;95;21142;-81
2021/06/06 00:20:19;;;;;;;12.68;5.75;;;;;;;12.69;100.00;100712.49;1516446;94;21023;-81
2021/06/06 00:22:45;;;;;;;13.35;6.03;;;;;;;12.70;100.00;100718.70;1504705;95;21093;-81
2021/06/06 00:25:13;;;;;;;24.18;6.87;;;;;;;12.63;100.00;100710.07;1516287;94;21194;-81
2021/06/06 00:27:39;;;;;;;22.22;6.72;;;;;;;12.60;100.00;100714.67;1504606;94;21070;-81
2021/06/06 00:30:09;;;;;;;16.67;5.65;;;;;;;12.59;100.00;100715.73;1516553;94;21130;-81
2021/06/06 00:32:36;;;;;;;18.35;6.17;;;;;;;12.53;100.00;100708.19;1504653;95;21189;-80
2021/06/06 00:35:03;;;;;;;15.90;6.35;;;;;;;12.52;100.00;100707.09;1516666;94;21130;-81
2021/06/06 00:37:29;;;;;;;21.62;7.00;;;;;;;12.51;100.00;100706.28;1504696;95;21344;-81
2021/06/06 00:39:55;;;;;;;16.25;6.58;;;;;;;12.49;100.00;100703.83;1516520;94;21091;-80
2021/06/06 00:42:22;;;;;;;22.58;6.72;;;;;;;12.48;100.00;100704.13;1504539;95;21054;-81
2021/06/06 00:44:49;;;;;;;26.05;7.17;;;;;;;12.43;100.00;100702.21;1530453;91;21071;-81
2021/06/06 00:47:15;;;;;;;17.40;6.60;;;;;;;12.40;100.00;100702.75;1539819;93;21191;-81
2021/06/06 00:49:41;;;;;;;21.68;6.80;;;;;;;12.34;100.00;100702.48;1539828;93;21117;-81
2021/06/06 00:52:09;;;;;;;20.30;6.45;;;;;;;12.31;100.00;100694.10;1543657;90;21567;-81
2021/06/06 00:54:42;;;;;;;24.87;6.78;;;;;;;12.32;100.00;100698.41;1606237;88;21485;-82
2021/06/06 00:57:17;;;;;;;20.65;6.25;;;;;;;12.26;100.00;100693.55;1626108;88;21059;-81
2021/06/06 00:59:47;;;;;;;20.88;6.30;;;;;;;12.24;100.00;100691.13;1601552;89;21098;-81
2021/06/06 01:02:14;;;;;;;25.70;5.85;;;;;;;12.24;100.00;100693.83;1601610;89;21139;-81
2021/06/06 01:04:43;;;;;;;23.10;6.03;;;;;;;12.22;100.00;100695.17;1620423;88;21036;-80
2021/06/06 01:07:10;;;;;;;19.27;6.15;;;;;;;12.21;100.00;100698.42;1620178;88;21106;-81
2021/06/06 01:09:36;;;;;;;16.93;5.37;;;;;;;12.21;100.00;100689.50;1620165;88;21064;-81
2021/06/06 01:12:17;;;;;;;18.57;6.50;;;;;;;12.16;100.00;100693.55;1620442;88;21637;-81
2021/06/06 01:15:03;;;;;;;14.78;6.22;;;;;;;12.14;100.00;100687.59;1620444;88;21251;-82
2021/06/06 01:18:01;;;;;;;15.72;6.05;;;;;;;12.09;100.00;100688.92;1619686;88;21068;-81
2021/06/06 01:20:40;;;;;;;14.10;5.72;;;;;;;12.07;100.00;100691.09;1631444;87;21103;-80
2021/06/06 01:23:32;;;;;;;18.98;6.03;;;;;;;12.03;100.00;100688.94;1571934;89;21113;-82
2021/06/06 01:26:03;;;;;;;18.25;5.85;;;;;;;12.04;100.00;100688.39;1545495;92;21091;-80
2021/06/06 01:28:52;;;;;;;13.70;5.45;;;;;;;12.04;100.00;100690.55;1545183;92;21149;-80
2021/06/06 01:31:22;;;;;;;16.70;6.20;;;;;;;12.05;100.00;100687.30;1528302;92;21059;-81
2021/06/06 01:33:56;;;;;;;9.98;5.12;;;;;;;12.02;100.00;100685.94;1533843;93;21241;-81
2021/06/06 01:36:27;;;;;;;12.47;5.45;;;;;;;11.99;100.00;100681.07;1532264;92;21156;-81
2021/06/06 01:39:01;;;;;;;14.87;5.75;;;;;;;11.97;100.00;100683.77;1534839;93;21128;-80
2021/06/06 01:41:35;;;;;;;14.13;5.75;;;;;;;11.96;100.00;100682.16;1531015;93;21131;-80
2021/06/06 01:44:06;;;;;;;14.33;6.12;;;;;;;11.94;100.00;100680.25;1534420;93;21108;-81
2021/06/06 01:46:43;;;;;;;20.32;6.20;;;;;;;11.92;100.00;100677.83;1534578;93;21061;-81
2021/06/06 01:49:13;;;;;;;15.30;5.22;;;;;;;11.91;100.00;100676.22;1531112;93;21631;-81
2021/06/06 01:51:44;;;;;;;14.78;5.60;;;;;;;11.91;100.00;100682.13;1534225;93;21645;-81
2021/06/06 01:54:15;;;;;;;14.55;5.20;;;;;;;11.92;100.00;100681.88;1524784;92;21181;-81
2021/06/06 01:56:45;;;;;;;14.28;5.75;;;;;;;11.94;100.00;100678.90;1486274;94;21065;-81
2021/06/06 01:59:25;;;;;;;15.93;5.45;;;;;;;11.96;100.00;100683.50;1528848;93;21149;-81
2021/06/06 02:01:52;;;;;;;8.38;4.15;;;;;;;11.97;100.00;100684.60;1553639;91;21127;-81
2021/06/06 02:04:19;;;;;;;22.00;6.15;;;;;;;11.99;100.00;100680.27;1592946;89;21074;-80
2021/06/06 02:06:54;;;;;;;14.15;5.03;;;;;;;12.00;100.00;100685.93;1600846;89;21936;-81
2021/06/06 02:09:24;;;;;;;10.18;4.67;;;;;;;12.00;100.00;100679.17;1603048;89;21211;-81
2021/06/06 02:11:57;;;;;;;11.97;5.17;;;;;;;12.03;100.00;100682.73;1602718;89;21093;-81
2021/06/06 02:14:30;;;;;;;11.28;5.10;;;;;;;12.08;100.00;100682.71;1602928;89;21093;-81
2021/06/06 02:17:01;;;;;;;18.85;5.03;;;;;;;12.12;100.00;100682.47;1602934;89;21081;-81
2021/06/06 02:19:30;;;;;;;12.88;5.55;;;;;;;12.20;100.00;100683.27;1602807;89;21261;-81
2021/06/06 02:22:01;;;;;;;14.40;5.53;;;;;;;12.28;100.00;100688.15;1602673;89;21588;-85
2021/06/06 02:24:28;;;;;;;11.45;4.67;;;;;;;12.36;100.00;100684.11;1643704;86;21071;-80
2021/06/06 02:27:05;;;;;;;16.00;5.17;;;;;;;12.40;100.00;100685.19;1651904;86;21101;-81
2021/06/06 02:30:00;;;;;;;16.15;4.95;;;;;;;12.48;100.00;100690.60;1647576;86;21056;-81
2021/06/06 02:33:15;;;;;;;15.88;5.22;;;;;;;12.59;100.00;100681.94;1654179;86;21898;-81
2021/06/06 02:35:58;;;;;;;12.30;5.50;;;;;;;12.69;100.00;100689.51;1644924;86;21587;-80
2021/06/06 02:38:38;;;;;;;21.90;6.00;;;;;;;12.72;100.00;100697.08;1645441;87;21625;-81
2021/06/06 02:41:15;;;;;;;21.82;6.10;;;;;;;12.83;100.00;100691.68;1649873;87;21048;-78
2021/06/06 02:43:46;;;;;;;16.35;6.15;;;;;;;12.94;100.00;100685.98;1525302;94;21654;-80
2021/06/06 02:46:15;;;;;;;14.43;5.70;;;;;;;13.16;100.00;100685.65;1523416;93;21248;-80
2021/06/06 02:48:55;;;;;;;15.55;6.08;;;;;;;13.56;100.00;100682.58;1527027;94;21070;-81
2021/06/06 02:51:24;;;;;;;21.02;5.72;;;;;;;14.22;100.00;100684.09;1524117;94;21117;-80
2021/06/06 02:54:04;;;;;;;17.77;5.87;;;;;;;14.96;100.00;100674.55;1527178;93;21710;-80
2021/06/06 02:56:44;;;;;;;15.20;6.33;;;;;;;15.61;100.00;100683.02;1502779;95;21119;-80
2021/06/06 02:59:18;;;;;;;13.60;6.08;;;;;;;15.90;100.00;100678.06;1462069;98;21175;-81
2021/06/06 03:01:52;;;;;;;14.90;6.08;;;;;;;15.87;100.00;100667.22;1488239;95;21415;-81
2021/06/06 03:04:23;;;;;;;18.85;6.60;;;;;;;15.86;100.00;100667.53;1458790;98;21793;-81
2021/06/06 03:07:03;;;;;;;16.67;6.33;;;;;;;15.95;100.00;100676.64;1458985;98;21107;-76
2021/06/06 03:09:29;;;;;;;16.27;6.37;;;;;;;16.00;100.00;100682.53;1469739;97;21046;-79
2021/06/06 03:11:58;;;;;;;21.65;7.12;;;;;;;16.42;100.00;100668.59;1476344;97;21207;-80
2021/06/06 03:14:28;;;;;;;20.45;6.30;;;;;;;16.42;100.00;100668.59;1476198;97;21146;-77
2021/06/06 03:17:02;;;;;;;21.70;6.10;;;;;;;16.86;100.00;100670.05;1458490;97;21106;-81
2021/06/06 03:19:32;;;;;;;16.95;5.72;;;;;;;17.42;100.00;100670.33;1426840;100;21648;-82
2021/06/06 03:22:02;;;;;;;15.15;5.95;;;;;;;18.07;100.00;100667.86;1497704;94;21727;-77
2021/06/06 03:24:36;;;;;;;14.15;5.60;;;;;;;18.84;100.00;100664.06;1515591;93;21188;-81
2021/06/06 03:27:06;;;;;;;15.48;5.17;;;;;;;19.72;100.00;100664.06;1513214;94;21580;-77
2021/06/06 03:29:54;;;;;;;11.10;5.17;;;;;;;20.58;100.00;100665.19;1515211;94;21095;-80
2021/06/06 03:32:31;;;;;;;14.83;4.95;;;;;;;21.04;100.00;100669.66;1515177;93;21666;-80
2021/06/06 03:34:57;;;;;;;17.42;4.72;;;;;;;21.57;100.00;100664.74;1515368;94;21115;-81
2021/06/06 03:37:25;;;;;;;12.20;4.40;;;;;;;21.92;100.00;100670.80;1541496;92;21180;-81
2021/06/06 03:39:52;;;;;;;17.20;4.60;;;;;;;22.71;100.00;100655.77;1543504;93;21218;-81
2021/06/06 03:42:19;;;;;;;13.58;4.30;;;;;;;23.46;100.00;100656.89;1524226;93;21185;-82
2021/06/06 03:44:45;;;;;;;14.50;4.33;;;;;;;24.25;100.00;100658.08;1543303;93;21780;-81
2021/06/06 03:47:11;;;;;;;15.83;4.50;;;;;;;24.62;100.00;100657.12;1543626;93;20958;-81
2021/06/06 03:49:37;;;;;;;9.03;4.30;;;;;;;24.61;89.40;100652.77;1543464;93;21889;-82
2021/06/06 03:52:05;;;;;;;12.03;4.70;;;;;;;25.17;100.00;100652.63;1543416;93;21085;-82
2021/06/06 03:54:32;;;;;;;11.25;4.08;;;;;;;25.70;95.17;100650.30;1543653;93;21145;-82
2021/06/06 03:56:58;;;;;;;13.68;4.55;;;;;;;26.26;91.92;100647.13;1542485;93;21057;-82
2021/06/06 03:59:25;;;;;;;10.20;3.90;;;;;;;26.94;94.10;100641.50;1542588;93;21148;-82
2021/06/06 04:01:52;;;;;;;6.83;3.60;;;;;;;27.39;88.94;100641.81;1616598;87;21116;-82
2021/06/06 04:04:18;;;;;;;6.30;3.62;;;;;;;27.69;75.09;100639.06;1632079;87;21015;-82
2021/06/06 04:06:45;;;;;;;7.47;3.62;;;;;;;27.24;63.28;100640.80;1631747;87;21054;-83
2021/06/06 04:09:11;;;;;;;15.50;4.03;;;;;;;27.80;63.97;100642.02;1632080;87;21087;-83
2021/06/06 04:11:38;;;;;;;8.43;3.00;;;;;;;27.99;68.37;100639.66;1632379;87;21074;-83
2021/06/06 04:14:05;;;;;;;8.20;3.40;;;;;;;28.39;69.23;100637.55;1631978;87;21237;-83
2021/06/06 04:16:34;;;;;;;6.87;2.80;;;;;;;28.10;61.39;100644.75;1662398;85;20993;-82
2021/06/06 04:19:00;;;;;;;9.38;3.30;;;;;;;27.90;59.36;100641.33;1681874;85;21095;-87
2021/06/06 04:21:29;;;;;;;7.47;2.90;;;;;;;28.17;54.06;100638.48;1681586;85;20968;-83
2021/06/06 04:23:55;;;;;;;8.98;3.08;;;;;;;28.62;56.90;100640.75;1682095;85;21036;-83
2021/06/06 04:26:23;;;;;;;9.75;3.02;;;;;;;29.36;57.00;100637.81;1682129;85;21872;-84
2021/06/06 04:28:49;;;;;;;13.00;2.98;;;;;;;29.46;50.17;100639.06;1681943;85;21052;-84
2021/06/06 04:31:17;;;;;;;5.90;2.77;;;;;;;28.89;46.27;100638.05;1682099;85;21540;-83
2021/06/06 04:33:43;;;;;;;6.03;2.90;;;;;;;28.34;48.55;100635.70;1681990;85;21088;-83
2021/06/06 04:36:10;;;;;;;14.60;3.42;;;;;;;27.95;51.14;100640.22;1681976;85;21005;-83
2021/06/06 04:38:37;;;;;;;8.90;2.83;;;;;;;28.06;49.05;100636.96;1682020;85;21181;-83
2021/06/06 04:41:08;;;;;;;6.12;2.85;;;;;;;28.04;51.03;100637.36;1679215;85;21059;-83
2021/06/06 04:43:35;;;;;;;6.25;3.37;;;;;;;29.04;54.99;100636.20;1672251;85;21080;-82
2021/06/06 04:46:02;;;;;;;6.22;2.70;;;;;;;29.38;48.29;100634.04;1651136;86;21099;-83
2021/06/06 04:48:35;;;;;;;8.33;3.42;;;;;;;29.36;47.18;100631.47;1689361;84;21081;-85
2021/06/06 04:51:06;;;;;;;10.93;3.08;;;;;;;29.03;46.04;100634.59;1687037;84;21688;-83
2021/06/06 04:53:32;;;;;;;10.48;2.90;;;;;;;29.24;43.82;100631.20;1679872;84;21462;-84
2021/06/06 04:56:00;;;;;;;7.08;2.40;;;;;;;29.40;46.84;100632.28;1681822;83;21546;-86
2021/06/06 04:58:29;;;;;;;8.15;2.60;;;;;;;30.73;48.40;100633.56;1662547;85;21546;-82
2021/06/06 05:00:55;;;;;;;7.67;3.15;;;;;;;30.78;39.27;100635.95;1673731;85;21030;-84
2021/06/06 05:03:22;;;;;;;10.78;2.67;;;;;;;31.30;45.42;100632.17;1668433;85;21514;-83
2021/06/06 05:05:49;;;;;;;6.00;3.02;;;;;;;32.24;43.83;100633.46;1659783;84;21012;-83
2021/06/06 05:08:19;;;;;;;5.35;2.80;;;;;;;32.03;37.09;100636.34;1659807;85;21011;-84
2021/06/06 05:10:46;;;;;;;5.60;2.80;;;;;;;32.57;42.37;100638.25;1659807;86;21019;-84
2021/06/06 05:13:13;;;;;;;7.85;2.98;;;;;;;30.41;38.45;100632.92;1659818;84;20955;-84
2021/06/06 05:15:40;;;;;;;11.28;2.92;;;;;;;29.25;40.16;100632.78;1659885;86;21128;-84
2021/06/06 05:18:07;;;;;;;10.78;2.92;;;;;;;28.12;43.76;100632.70;1659851;86;21562;-84
2021/06/06 05:20:38;;;;;;;6.72;2.95;;;;;;;27.37;45.06;100638.61;1659996;85;21565;-84
2021/06/06 05:23:05;;;;;;;8.08;2.85;;;;;;;29.67;46.23;100645.34;1659821;84;21082;-84
2021/06/06 05:25:34;;;;;;;8.18;2.75;;;;;;;30.65;43.53;100643.09;1659932;84;21554;-84
2021/06/06 05:28:00;;;;;;;11.55;2.75;;;;;;;30.58;42.84;100642.49;1659518;86;21155;-84
2021/06/06 05:30:31;;;;;;;5.08;2.67;;;;;;;31.16;40.55;100639.95;1659633;86;20962;-83
2021/06/06 05:32:57;;;;;;;4.17;2.70;;;;;;;31.83;40.49;100637.42;1659906;86;21027;-84
2021/06/06 05:35:27;;;;;;;5.50;2.52;;;;;;;31.64;37.74;100638.06;1659912;86;21561;-84
2021/06/06 05:37:54;;;;;;;7.55;2.83;;;;;;;32.08;37.02;100634.53;1659841;86;21094;-85
2021/06/06 05:40:23;;;;;;;10.10;2.72;;;;;;;32.96;38.15;100634.34;1659659;84;21153;-84
2021/06/06 05:42:50;;;;;;;8.38;2.80;;;;;;;33.14;36.49;100630.80;1659817;85;21483;-84
2021/06/06 05:45:19;;;;;;;10.95;3.42;;;;;;;33.46;36.76;100637.45;1659892;86;21007;-85
2021/06/06 05:47:45;;;;;;;9.20;2.90;;;;;;;33.14;34.57;100637.00;1673384;85;21205;-84
2021/06/06 05:50:15;;;;;;;6.72;2.92;;;;;;;33.99;35.63;100631.67;1672192;85;20905;-87
2021/06/06 05:52:41;;;;;;;10.08;3.45;;;;;;;32.96;34.85;100630.95;1671565;85;21051;-84
2021/06/06 05:55:08;;;;;;;4.72;2.60;;;;;;;32.51;37.68;100635.70;1671664;85;21707;-84
2021/06/06 05:57:35;;;;;;;8.48;2.70;;;;;;;33.61;36.92;100627.55;1680322;85;21020;-84
2021/06/06 06:00:12;;;;;;;5.65;2.50;;;;;;;33.97;36.09;100637.67;1684351;83;20996;-83
2021/06/06 06:02:38;;;;;;;9.38;2.45;;;;;;;34.79;35.55;100632.30;1690558;84;21058;-84
2021/06/06 06:05:06;;;;;;;6.30;2.47;;;;;;;34.00;33.05;100631.23;1690169;85;21777;-84
2021/06/06 06:07:32;;;;;;;7.42;2.80;;;;;;;34.00;33.05;100631.23;1690046;84;21030;-84
2021/06/06 06:09:58;;;;;;;6.20;2.90;;;;;;;33.15;34.21;100631.02;1690368;85;20954;-84
2021/06/06 06:12:24;;;;;;;5.53;2.80;;;;;;;34.70;33.92;100622.26;1689456;83;20998;-82
2021/06/06 06:14:50;;;;;;;7.90;3.33;;;;;;;32.97;31.93;100626.97;1693999;83;20920;-84
2021/06/06 06:17:17;;;;;;;6.20;2.72;;;;;;;33.05;32.60;100624.13;1712143;83;21078;-82
2021/06/06 06:19:43;;;;;;;8.63;2.85;;;;;;;33.63;31.33;100625.92;1712077;83;21055;-84
2021/06/06 06:22:09;;;;;;;9.13;2.72;;;;;;;33.33;34.03;100629.44;1711897;83;20955;-84
2021/06/06 06:24:35;;;;;;;10.68;3.10;;;;;;;33.42;33.06;100614.97;1712272;83;21008;-84
2021/06/06 06:27:03;;;;;;;6.25;2.52;;;;;;;35.54;32.27;100613.36;1711957;83;21062;-84
2021/06/06 06:29:30;;;;;;;8.83;2.98;;;;;;;34.50;32.50;100597.56;1712452;83;22454;-84
2021/06/06 06:31:55;;;;;;;5.50;2.75;;;;;;;33.44;34.39;100618.12;1712035;83;21000;-83
2021/06/06 06:34:22;;;;;;;9.10;2.72;;;;;;;33.81;28.58;100620.72;1712081;83;20970;-84
2021/06/06 06:36:48;;;;;;;9.18;2.83;;;;;;;34.14;32.30;100613.50;1706049;83;21015;-84
2021/06/06 06:39:14;;;;;;;9.88;2.50;;;;;;;35.31;31.00;100617.02;1711190;83;21078;-84
2021/06/06 06:41:40;;;;;;;12.45;2.98;;;;;;;35.43;29.36;100613.56;1704679;83;21027;-83
2021/06/06 06:44:06;;;;;;;5.70;2.83;;;;;;;35.77;32.21;100610.30;1700330;83;21028;-83
2021/06/06 06:46:32;;;;;;;5.25;2.45;;;;;;;35.24;29.89;100614.36;1704096;83;21046;-83
2021/06/06 06:48:58;;;;;;;8.80;2.55;;;;;;;34.84;29.21;100614.23;1686804;85;20995;-84
2021/06/06 06:51:27;;;;;;;5.00;2.40;;;;;;;33.98;29.57;100602.13;1690364;84;20978;-84
2021/06/06 06:53:57;;;;;;;6.62;2.60;;;;;;;34.29;31.29;100611.28;1688434;84;21808;-83
2021/06/06 06:56:29;;;;;;;4.50;2.30;;;;;;;33.31;30.26;100603.11;1693901;83;21023;-83
2021/06/06 06:58:56;;;;;;;;;;;;;;;34.00;33.25;100612.27;1715504;83;21023;-83
2021/06/06 07:01:22;;;;;;;5.47;2.45;;;;;;;34.25;30.16;100619.73;1678857;85;20304;-82
2021/06/06 07:03:49;;;;;;;13.18;2.70;;;;;;;34.40;31.68;100616.73;1668268;85;20967;-83
2021/06/06 07:06:16;;;;;;;8.90;2.30;;;;;;;34.91;31.29;100611.91;1665268;86;21109;-83
2021/06/06 07:08:43;;;;;;;11.05;2.50;;;;;;;34.98;30.01;100607.59;1689303;84;21071;-83
2021/06/06 07:11:14;;;;;;;5.90;2.00;;;;;;;34.88;30.08;100612.77;1688235;85;21020;-83
2021/06/06 07:13:41;;;;;;;5.92;2.47;;;;;;;31.86;32.64;100608.12;1688159;85;21088;-83
2021/06/06 07:16:09;;;;;;;6.75;2.20;;;;;;;31.81;31.90;100609.15;1687842;85;21101;-83
2021/06/06 07:18:37;;;;;;;4.47;2.27;;;;;;;32.11;30.58;100612.20;1648227;85;21185;-83
2021/06/06 07:21:08;;;;;;;6.17;2.25;;;;;;;32.85;33.02;100609.30;1655911;86;21106;-82
2021/06/06 07:23:34;;;;;;;7.12;2.00;;;;;;;34.58;30.91;100603.27;1642276;86;21030;-83
2021/06/06 07:26:06;;;;;;;6.35;2.12;;;;;;;34.99;29.35;100609.17;1662743;85;21024;-79
2021/06/06 07:28:32;;;;;;;9.78;2.30;;;;;;;34.75;29.10;100611.98;1631575;86;21109;-83
2021/06/06 07:31:02;;;;;;;8.80;2.50;;;;;;;35.13;30.31;100607.55;1628737;88;21109;-83
2021/06/06 07:33:36;;;;;;;5.58;2.37;;;;;;;35.10;29.51;100604.20;1628682;88;21067;-83
2021/06/06 07:36:05;;;;;;;7.20;2.30;;;;;;;35.24;30.03;100608.14;1629119;87;21023;-82
2021/06/06 07:38:32;;;;;;;5.25;2.20;;;;;;;35.38;30.82;100604.86;1632261;86;21102;-83
2021/06/06 07:41:00;;;;;;;5.83;2.27;;;;;;;35.02;29.86;100601.31;1632390;86;21573;-84
2021/06/06 07:43:27;;;;;;;4.78;2.40;;;;;;;34.11;30.28;100603.94;1628728;86;21492;-79
2021/06/06 07:45:54;;;;;;;12.47;2.55;;;;;;;34.30;31.36;100610.88;1580482;90;22269;-84
2021/06/06 07:48:21;;;;;;;8.88;2.25;;;;;;;34.57;29.31;100607.29;1583269;90;21564;-83
2021/06/06 07:50:51;;;;;;;7.80;2.17;;;;;;;33.84;29.83;100604.50;1583094;90;21060;-83
2021/06/06 07:53:18;;;;;;;8.60;2.27;;;;;;;33.85;32.00;100608.88;1561741;90;21053;-83
2021/06/06 07:55:44;;;;;;;7.72;2.50;;;;;;;34.29;31.34;100607.88;1582939;90;21747;-83
2021/06/06 07:58:13;;;;;;;11.48;2.25;;;;;;;33.54;32.11;100602.48;1566097;91;21093;-85
2021/06/06 08:00:42;;;;;;;9.25;2.00;;;;;;;33.97;31.06;100604.72;1566042;91;21096;-83
2021/06/06 08:03:09;;;;;;;13.45;2.35;;;;;;;33.53;31.58;100601.67;1565822;91;21562;-84
2021/06/06 08:05:38;;;;;;;9.03;1.98;;;;;;;34.00;29.96;100607.46;1566070;91;21182;-83
2021/06/06 08:08:05;;;;;;;4.30;1.87;;;;;;;32.26;30.77;100615.69;1565900;91;21174;-82
2021/06/06 08:10:34;;;;;;;5.78;2.10;;;;;;;33.61;31.33;100606.58;1583241;89;21345;-82
2021/06/06 08:13:00;;;;;;;10.70;1.90;;;;;;;33.37;30.81;100614.80;1600144;89;21539;-83
2021/06/06 08:15:28;;;;;;;5.15;1.95;;;;;;;33.55;30.58;100605.46;1600051;89;21041;-83
2021/06/06 08:17:56;;;;;;;5.90;2.25;;;;;;;33.43;30.81;100596.98;1579187;89;21072;-83
2021/06/06 08:20:30;;;;;;;9.60;2.30;;;;;;;32.41;31.96;100614.20;1613133;88;22927;-82
2021/06/06 08:22:57;;;;;;;5.50;2.10;;;;;;;32.66;31.80;100609.88;1629432;86;21616;-83
2021/06/06 08:25:24;;;;;;;6.37;2.02;;;;;;;33.80;30.27;100608.75;1625482;88;21119;-82
2021/06/06 08:27:51;;;;;;;7.97;2.75;;;;;;;33.99;31.29;100609.30;1629391;88;21019;-82
2021/06/06 08:30:37;;;;;;;8.85;2.70;;;;;;;34.29;32.79;100614.88;1629781;88;21007;-83
2021/06/06 08:33:05;;;;;;;8.93;2.55;;;;;;;34.95;30.72;100618.26;1599771;89;21076;-84
2021/06/06 08:35:32;;;;;;;5.25;2.20;;;;;;;35.57;28.47;100616.73;1599657;89;21146;-83
2021/06/06 08:37:58;;;;;;;6.53;2.00;;;;;;;35.99;29.65;100605.81;1599907;89;21023;-82
2021/06/06 08:40:36;;;;;;;7.33;2.35;;;;;;;35.65;29.14;100602.75;1596922;89;21064;-83
2021/06/06 08:43:08;;;;;;;6.22;2.17;;;;;;;36.47;27.95;100604.31;1525175;93;21061;-83
2021/06/06 08:45:38;;;;;;;3.67;1.90;;;;;;;36.67;29.39;100600.67;1507400;94;22014;-83
2021/06/06 08:48:07;;;;;;;4.62;1.87;;;;;;;36.62;26.12;100594.95;1525613;92;21229;-83
2021/06/06 08:50:42;;;;;;;9.53;2.05;;;;;;;36.93;25.88;100595.98;1525716;94;21175;-83
2021/06/06 08:53:46;;;;;;;8.70;1.67;;;;;;;36.77;28.41;100597.59;1525960;94;21504;-82
2021/06/06 08:56:18;;;;;;;3.12;1.95;;;;;;;35.41;28.97;100598.39;1523254;93;21097;-82
2021/06/06 08:58:59;;;;;;;8.18;2.05;;;;;;;34.02;31.14;100598.66;1513525;94;21691;-83
2021/06/06 09:01:40;;;;;;;6.45;1.87;;;;;;;34.07;30.82;100595.44;1512034;94;21055;-82
2021/06/06 09:04:23;;;;;;;6.80;2.42;;;;;;;33.45;30.65;100592.56;1513849;94;21075;-83
2021/06/06 09:07:07;;;;;;;8.45;2.58;;;;;;;33.21;31.45;100595.83;1515108;93;21134;-83
2021/06/06 09:09:46;;;;;;;11.60;2.20;;;;;;;34.00;31.21;100594.09;1561255;91;21622;-83
2021/06/06 09:12:18;;;;;;;9.50;2.20;;;;;;;33.76;32.02;100601.60;1561360;91;21194;-82
2021/06/06 09:14:45;;;;;;;7.67;2.00;;;;;;;34.04;31.08;100592.08;1550990;90;21080;-84
2021/06/06 09:17:15;;;;;;;6.20;2.40;;;;;;;34.32;31.45;100595.05;1558113;90;21216;-82
2021/06/06 09:19:55;;;;;;;5.72;2.00;;;;;;;34.71;31.49;100590.27;1537387;93;21706;-84
2021/06/06 09:22:41;;;;;;;3.58;2.05;;;;;;;34.34;30.53;100592.02;1557150;90;21142;-83
2021/06/06 09:25:26;;;;;;;10.98;2.00;;;;;;;34.11;31.14;100601.75;1570563;90;21561;-83
2021/06/06 09:28:08;;;;;;;5.90;2.25;;;;;;;33.90;30.82;100600.81;1494174;94;21082;-84
2021/06/06 09:30:37;;;;;;;5.97;2.00;;;;;;;32.53;30.67;100587.23;1491872;96;21217;-83
2021/06/06 09:33:29;;;;;;;12.73;2.17;;;;;;;32.88;31.96;100591.72;1494048;94;21114;-82
2021/06/06 09:36:04;;;;;;;6.40;2.27;;;;;;;32.07;32.98;100600.28;1477357;97;21676;-83
2021/06/06 09:38:35;;;;;;;5.62;1.60;;;;;;;31.98;33.39;100590.78;1478120;97;21131;-83
2021/06/06 09:41:16;;;;;;;10.88;1.98;;;;;;;32.32;33.67;100595.92;1491174;96;21034;-83
2021/06/06 09:43:46;;;;;;;5.83;2.20;;;;;;;32.62;32.87;100593.75;1491168;96;21094;-82
2021/06/06 09:46:19;;;;;;;7.00;1.87;;;;;;;32.37;31.96;100596.11;1485453;96;21177;-82
2021/06/06 09:48:46;;;;;;;;;;;;;;;32.21;33.98;100588.25;1460695;96;21211;-83
2021/06/06 09:51:31;;;;;;;9.70;1.57;;;;;;;31.88;33.77;100585.41;1485589;96;21944;-83
2021/06/06 09:54:17;;;;;;;7.37;1.90;;;;;;;32.16;34.16;100584.50;1484465;96;21654;-81
2021/06/06 09:56:50;;;;;;;8.90;1.98;;;;;;;31.52;34.50;100581.39;1461939;96;21212;-83
2021/06/06 09:59:24;;;;;;;5.25;1.82;;;;;;;31.44;35.77;100580.64;1450298;99;21115;-82
2021/06/06 10:02:15;;;;;;;5.85;1.40;;;;;;;31.39;36.10;100571.91;1448529;98;21677;-82
2021/06/06 10:04:45;;;;;;;3.12;1.47;;;;;;;31.28;35.96;100580.25;1466254;95;22191;-82
2021/06/06 10:07:32;;;;;;;3.52;1.40;;;;;;;30.90;36.34;100581.31;1539130;92;21098;-82
2021/06/06 10:10:00;;;;;;;2.98;1.95;;;;;;;30.93;35.75;100576.34;1550692;92;21462;-82
2021/06/06 10:12:39;;;;;;;3.47;1.80;;;;;;;30.65;36.80;100575.74;1551095;92;21545;-83
2021/06/06 10:15:07;;;;;;;3.35;1.67;;;;;;;30.63;37.50;100573.95;1554331;91;21500;-83
2021/06/06 10:17:53;;;;;;;6.03;1.57;;;;;;;30.08;38.39;100577.81;1583825;90;21169;-82
2021/06/06 10:20:27;;;;;;;4.80;1.55;;;;;;;29.71;37.46;100578.69;1556522;92;21054;-82
2021/06/06 10:23:07;;;;;;;3.27;1.95;;;;;;;29.89;38.58;100572.63;1557565;92;21061;-82
2021/06/06 10:26:10;;;;;;;3.00;1.45;;;;;;;29.83;38.36;100581.14;1557557;92;21097;-81
2021/06/06 10:28:42;;;;;;;8.23;1.52;;;;;;;29.10;39.75;100576.98;1558958;91;21069;-82
2021/06/06 10:31:34;;;;;;;3.75;1.92;;;;;;;28.84;41.25;100571.80;1557872;91;21185;-81
2021/06/06 10:34:40;;;;;;;2.47;1.52;;;;;;;28.71;42.17;100578.25;1549836;92;21096;-83
2021/06/06 10:37:07;;;;;;;5.70;1.72;;;;;;;28.38;42.08;100567.22;1551933;91;21154;-82
2021/06/06 10:39:43;;;;;;;7.03;1.50;;;;;;;28.37;44.75;100569.80;1532113;92;21074;-82
2021/06/06 10:42:17;;;;;;;4.30;1.47;;;;;;;28.60;45.02;100568.25;1551760;91;21561;-83
2021/06/06 10:45:05;;;;;;;5.53;1.22;;;;;;;28.92;44.41;100574.05;1538044;93;21152;-82
2021/06/06 10:47:46;;;;;;;1.92;1.40;;;;;;;27.93;46.75;100572.70;1533967;93;21117;-82
2021/06/06 10:50:26;;;;;;;4.78;1.35;;;;;;;27.89;46.20;100571.09;1532254;92;21082;-83
2021/06/06 10:52:54;;;;;;;5.97;1.20;;;;;;;27.81;50.62;100568.81;1552086;92;21057;-82
2021/06/06 10:55:31;;;;;;;3.17;1.40;;;;;;;27.94;45.99;100570.14;1553667;92;21575;-82
2021/06/06 10:58:10;;;;;;;2.42;1.27;;;;;;;28.14;49.10;100559.67;1583364;89;21943;-82
2021/06/06 11:00:41;;;;;;;2.90;1.10;;;;;;;28.25;45.78;100559.19;1523750;93;21104;-81
2021/06/06 11:03:27;;;;;;;1.98;1.00;;;;;;;28.48;47.03;100561.81;1530167;93;21101;-82
2021/06/06 11:05:59;;;;;;;1.42;1.00;;;;;;;28.93;44.73;100564.53;1530366;93;22342;-82
2021/06/06 11:08:34;;;;;;;2.02;0.80;;;;;;;28.47;45.26;100561.62;1514914;94;21087;-82
2021/06/06 11:11:24;;;;;;;0.98;0.80;;;;;;;28.52;44.10;100554.91;1487715;96;21289;-83
2021/06/06 11:13:58;;;;;;;2.15;0.78;;;;;;;28.22;47.97;100556.39;1514778;94;21158;-82
2021/06/06 11:16:34;;;;;;;0.75;0.72;;;;;;;28.06;46.50;100564.36;1486997;96;21117;-82
2021/06/06 11:19:05;;;;;;;1.30;0.65;;;;;;;28.19;45.70;100557.95;1479443;97;21067;-83
2021/06/06 11:21:52;;;;;;;2.00;0.80;;;;;;;27.94;47.27;100556.88;1464359;97;21099;-82
2021/06/06 11:24:41;;;;;;;4.08;0.70;;;;;;;27.97;45.20;100551.96;1478911;95;21129;-82
2021/06/06 11:27:18;;;;;;;1.20;0.60;;;;;;;27.67;48.48;100554.17;1479144;97;21586;-83
2021/06/06 11:30:11;;;;;;;1.57;0.90;;;;;;;27.88;48.92;100559.19;1479193;97;21146;-82
2021/06/06 11:32:58;;;;;;;3.58;1.07;;;;;;;28.05;48.61;100552.25;1476416;97;21159;-82
2021/06/06 11:35:42;;;;;;;1.87;0.82;;;;;;;27.99;47.87;100563.47;1498025;95;21031;-80
2021/06/06 11:38:40;;;;;;;1.10;0.72;;;;;;;27.80;47.95;100557.53;1461321;97;21636;-82
2021/06/06 11:41:28;;;;;;;3.05;0.80;;;;;;;27.59;49.87;100566.33;1492847;94;21115;-83